Time;durP1;ratioP1;P1;durP2;ratioP2;P2;SDS_P1;SDS_P2;PMS_P1;PMS_P2;Temp;Humidity;BMP_temperature;BMP_pressure;BME280_temperature;BME280_humidity;BME280_pressure;Samples;Min_cycle;Max_cycle;Signal;HPM_P1;HPM_P2
2023/10/12 00:00:41;;;;;;;13.73;6.20;;;;;;;;;;7366041;19;20561;-76
2023/10/12 00:03:07;;;;;;;17.00;5.97;;;;;;;;;;7366155;19;20130;-76
2023/10/12 00:05:34;;;;;;;15.48;5.97;;;;;;;;;;7388287;19;20082;-75
2023/10/12 00:08:07;;;;;;;13.77;5.10;;;;;;;;;;7367885;19;20006;-76
2023/10/12 00:10:41;;;;;;;24.35;6.38;;;;;;;;;;7368108;19;20006;-76
2023/10/12 00:13:11;;;;;;;11.63;5.13;;;;;;;;;;7366025;19;20006;-76
2023/10/12 00:15:41;;;;;;;17.63;6.40;;;;;;;;;;7367663;19;20003;-76
2023/10/12 00:18:10;;;;;;;13.02;5.78;;;;;;;;;;7368155;19;20369;-77
2023/10/12 00:20:39;;;;;;;13.88;5.85;;;;;;;;;;7388528;19;20030;-76
2023/10/12 00:23:09;;;;;;;14.27;6.18;;;;;;;;;;7364920;19;20028;-75
2023/10/12 00:25:48;;;;;;;14.18;5.40;;;;;;;;;;7368675;19;20017;-76
2023/10/12 00:28:21;;;;;;;12.50;5.60;;;;;;;;;;7369168;19;20017;-75
2023/10/12 00:30:47;;;;;;;14.32;5.35;;;;;;;;;;7368023;19;20006;-75
2023/10/12 00:33:13;;;;;;;11.20;5.57;;;;;;;;;;7365773;19;20448;-75
2023/10/12 00:35:39;;;;;;;16.40;5.28;;;;;;;;;;7390133;19;20082;-75
2023/10/12 00:38:18;;;;;;;11.52;5.50;;;;;;;;;;7385900;19;20014;-74
2023/10/12 00:40:55;;;;;;;13.05;5.47;;;;;;;;;;7395019;19;20007;-74
2023/10/12 00:43:21;;;;;;;16.73;5.30;;;;;;;;;;7396560;19;20136;-74
2023/10/12 00:45:47;;;;;;;15.07;6.07;;;;;;;;;;7403514;19;20030;-75
2023/10/12 00:48:16;;;;;;;12.98;5.60;;;;;;;;;;7402217;19;20010;-75
2023/10/12 00:50:44;;;;;;;14.70;5.97;;;;;;;;;;7413952;19;20003;-75
2023/10/12 00:55:45;;;;;;;15.55;5.43;;;;;;;;;;7373314;19;20006;-76
2023/10/12 00:58:14;;;;;;;11.18;5.38;;;;;;;;;;7373906;19;20006;-76
2023/10/12 01:00:50;;;;;;;16.17;5.32;;;;;;;;;;7372980;19;20511;-75
2023/10/12 01:08:33;;;;;;;14.43;5.95;;;;;;;;;;7395471;19;20013;-76
2023/10/12 01:11:04;;;;;;;12.77;6.07;;;;;;;;;;7371837;19;20007;-76
2023/10/12 01:13:33;;;;;;;;;;;;;;;;;;7370981;19;20006;-76
2023/10/12 01:16:02;;;;;;;14.30;5.70;;;;;;;;;;7371183;19;20345;-75
2023/10/12 01:18:28;;;;;;;12.38;5.80;;;;;;;;;;7370927;19;20014;-75
2023/10/12 01:20:53;;;;;;;12.52;5.60;;;;;;;;;;7370668;19;19998;-76
2023/10/12 01:23:19;;;;;;;11.27;5.53;;;;;;;;;;7388083;19;20040;-76
2023/10/12 01:25:47;;;;;;;13.23;6.47;;;;;;;;;;7368811;19;20114;-76
2023/10/12 01:28:13;;;;;;;13.40;5.78;;;;;;;;;;7369000;19;20013;-77
2023/10/12 01:30:39;;;;;;;11.18;6.32;;;;;;;;;;7369877;19;20281;-75
2023/10/12 01:33:04;;;;;;;15.75;6.03;;;;;;;;;;7368939;19;20006;-76
2023/10/12 01:35:33;;;;;;;14.20;6.50;;;;;;;;;;7390771;19;20305;-76
2023/10/12 01:38:03;;;;;;;14.73;5.88;;;;;;;;;;7371475;19;20030;-76
2023/10/12 01:40:44;;;;;;;16.20;6.10;;;;;;;;;;7371828;19;20890;-76
2023/10/12 01:43:12;;;;;;;17.70;6.43;;;;;;;;;;7370057;19;20464;-76
2023/10/12 01:45:41;;;;;;;18.90;6.97;;;;;;;;;;7371474;19;20021;-76
2023/10/12 01:48:10;;;;;;;14.43;5.85;;;;;;;;;;7371975;19;20004;-76
2023/10/12 01:50:38;;;;;;;12.27;5.78;;;;;;;;;;7390553;19;20002;-76
2023/10/12 01:55:45;;;;;;;14.27;5.72;;;;;;;;;;7372840;19;20017;-76
2023/10/12 01:58:12;;;;;;;12.25;5.60;;;;;;;;;;7372376;19;20006;-74
2023/10/12 02:00:51;;;;;;;19.08;6.10;;;;;;;;;;7371674;19;20051;-76
2023/10/12 02:03:20;;;;;;;16.40;6.57;;;;;;;;;;7369387;19;20003;-76
2023/10/12 02:06:03;;;;;;;15.73;6.40;;;;;;;;;;7394051;19;20044;-75
2023/10/12 02:08:34;;;;;;;15.10;6.05;;;;;;;;;;7372350;19;20007;-76
2023/10/12 02:11:10;;;;;;;14.80;6.07;;;;;;;;;;7371502;19;20002;-76
2023/10/12 02:13:35;;;;;;;10.95;5.68;;;;;;;;;;7380907;19;20015;-76
2023/10/12 02:16:02;;;;;;;16.45;6.25;;;;;;;;;;7386449;19;20009;-75
2023/10/12 02:18:30;;;;;;;13.02;6.40;;;;;;;;;;7386166;19;20150;-75
2023/10/12 02:21:11;;;;;;;14.05;6.10;;;;;;;;;;7375545;19;19998;-75
2023/10/12 02:34:28;;;;;;;15.18;5.38;;;;;;;;;;7369128;19;20006;-76
2023/10/12 02:39:31;;;;;;;13.30;4.82;;;;;;;;;;7371059;19;20013;-77
2023/10/12 02:42:17;;;;;;;13.98;5.05;;;;;;;;;;7366411;19;20472;-74
2023/10/12 02:47:23;;;;;;;15.90;5.28;;;;;;;;;;7388791;19;20075;-77
2023/10/12 02:50:00;;;;;;;15.02;6.00;;;;;;;;;;7380431;19;20015;-75
2023/10/12 02:52:27;;;;;;;15.27;5.65;;;;;;;;;;7368257;19;20505;-76
2023/10/12 02:54:55;;;;;;;14.80;5.40;;;;;;;;;;7368650;19;20055;-76
2023/10/12 02:57:24;;;;;;;12.07;5.15;;;;;;;;;;7370918;19;20337;-76
2023/10/12 03:00:12;;;;;;;13.95;5.53;;;;;;;;;;7370095;19;20014;-76
2023/10/12 03:02:43;;;;;;;10.38;4.90;;;;;;;;;;7389078;19;20010;-76
2023/10/12 03:05:17;;;;;;;9.82;4.72;;;;;;;;;;7367230;19;20016;-77
2023/10/12 03:07:44;;;;;;;13.90;5.07;;;;;;;;;;7368518;19;20488;-75
2023/10/12 03:10:26;;;;;;;12.48;5.40;;;;;;;;;;7369868;19;20734;-75
2023/10/12 03:12:55;;;;;;;11.95;5.20;;;;;;;;;;7366922;19;20003;-76
2023/10/12 03:15:31;;;;;;;12.40;4.78;;;;;;;;;;7366681;19;20018;-76
2023/10/12 03:17:58;;;;;;;15.50;5.15;;;;;;;;;;7365096;19;20499;-77
2023/10/12 03:20:28;;;;;;;14.75;5.22;;;;;;;;;;7390129;19;20018;-75
2023/10/12 03:22:57;;;;;;;12.27;4.85;;;;;;;;;;7367131;19;20038;-77
2023/10/12 03:25:43;;;;;;;9.32;4.80;;;;;;;;;;7370345;19;20002;-75
2023/10/12 03:28:29;;;;;;;12.95;4.75;;;;;;;;;;7365314;19;20032;-76
2023/10/12 03:30:54;;;;;;;11.80;5.10;;;;;;;;;;7366598;19;20073;-76
2023/10/12 03:33:27;;;;;;;17.73;4.90;;;;;;;;;;7365694;19;20130;-76
2023/10/12 03:36:22;;;;;;;14.20;5.13;;;;;;;;;;7366281;19;20574;-77
2023/10/12 03:38:39;;;;;;;11.40;4.70;;;;;;;;;;7388494;19;20011;-76
2023/10/12 03:43:54;;;;;;;12.48;5.30;;;;;;;;;;7366211;19;20238;-76
2023/10/12 03:46:29;;;;;;;10.18;4.60;;;;;;;;;;7365892;19;20032;-76
2023/10/12 03:49:23;;;;;;;20.65;5.40;;;;;;;;;;7368275;19;20010;-77
2023/10/12 03:51:48;;;;;;;10.60;4.40;;;;;;;;;;7368261;19;20015;-76
2023/10/12 03:54:29;;;;;;;13.80;4.60;;;;;;;;;;7366483;19;20010;-77
2023/10/12 03:57:19;;;;;;;13.40;4.82;;;;;;;;;;7368254;19;20014;-76
2023/10/12 04:02:30;;;;;;;14.10;4.45;;;;;;;;;;7366380;19;20027;-76
2023/10/12 04:08:00;;;;;;;11.60;4.68;;;;;;;;;;7368033;19;20010;-76
2023/10/12 04:13:55;;;;;;;11.00;4.18;;;;;;;;;;7366306;19;20010;-77
2023/10/12 04:16:27;;;;;;;16.80;4.93;;;;;;;;;;7371779;19;20527;-76
2023/10/12 04:21:23;;;;;;;14.50;5.82;;;;;;;;;;7374793;19;20002;-75
2023/10/12 04:29:08;;;;;;;14.77;6.22;;;;;;;;;;7373913;19;20567;-75
2023/10/12 04:31:34;;;;;;;18.80;7.38;;;;;;;;;;7376615;19;20071;-75
2023/10/12 04:39:27;;;;;;;25.88;7.80;;;;;;;;;;7384408;19;20051;-76
2023/10/12 04:42:04;;;;;;;17.77;6.97;;;;;;;;;;7373556;19;20013;-76
2023/10/12 04:46:59;;;;;;;21.08;6.80;;;;;;;;;;7371410;19;20009;-76
2023/10/12 04:57:33;;;;;;;26.55;8.23;;;;;;;;;;7373235;19;20022;-76
2023/10/12 05:07:48;;;;;;;18.50;7.43;;;;;;;;;;7360390;19;20022;-75
2023/10/12 05:10:15;;;;;;;22.20;8.10;;;;;;;;;;7363801;19;20010;-76
2023/10/12 05:12:40;;;;;;;17.50;7.35;;;;;;;;;;7358161;19;20010;-76
2023/10/12 05:15:11;;;;;;;16.27;7.38;;;;;;;;;;7354307;19;20015;-75
2023/10/12 05:17:36;;;;;;;29.35;17.15;;;;;;;;;;7387169;19;20003;-77
2023/10/12 05:20:04;;;;;;;18.88;7.80;;;;;;;;;;7370845;19;20071;-76
2023/10/12 05:22:29;;;;;;;22.25;8.82;;;;;;;;;;7346956;19;20018;-77
2023/10/12 05:24:54;;;;;;;14.15;6.75;;;;;;;;;;7368981;19;19999;-76
2023/10/12 05:27:23;;;;;;;19.63;6.80;;;;;;;;;;7366229;19;20030;-76
2023/10/12 05:29:52;;;;;;;17.95;6.65;;;;;;;;;;7369701;19;20010;-77
2023/10/12 05:32:18;;;;;;;17.35;6.45;;;;;;;;;;7389228;19;20539;-77
2023/10/12 05:34:46;;;;;;;14.35;7.07;;;;;;;;;;7368198;19;20002;-75
2023/10/12 05:39:46;;;;;;;15.27;6.43;;;;;;;;;;7369126;19;20412;-74
2023/10/12 05:42:14;;;;;;;35.83;9.82;;;;;;;;;;7364004;19;20023;-74
2023/10/12 05:44:43;;;;;;;31.42;8.45;;;;;;;;;;7383554;19;20003;-74
2023/10/12 05:47:11;;;;;;;16.58;6.88;;;;;;;;;;7367226;19;20010;-74
2023/10/12 05:49:44;;;;;;;19.83;7.07;;;;;;;;;;7369334;19;20002;-74
2023/10/12 05:52:10;;;;;;;16.33;6.78;;;;;;;;;;7365782;19;20029;-74
2023/10/12 05:54:38;;;;;;;15.75;6.15;;;;;;;;;;7367965;19;20010;-74
2023/10/12 05:57:07;;;;;;;14.20;6.07;;;;;;;;;;7368790;19;20008;-74
2023/10/12 05:59:32;;;;;;;11.48;6.40;;;;;;;;;;7389517;19;20015;-74
2023/10/12 06:02:01;;;;;;;21.20;6.40;;;;;;;;;;7367036;19;20870;-75
2023/10/12 06:04:26;;;;;;;17.23;6.88;;;;;;;;;;7367663;19;20022;-75
2023/10/12 06:06:52;;;;;;;19.40;6.85;;;;;;;;;;7368224;19;20002;-75
2023/10/12 06:09:35;;;;;;;16.67;7.03;;;;;;;;;;7369955;19;20015;-74
2023/10/12 06:12:06;;;;;;;13.18;5.75;;;;;;;;;;7364709;19;20006;-74
2023/10/12 06:14:32;;;;;;;12.93;6.03;;;;;;;;;;7387809;19;20015;-74
2023/10/12 06:17:02;;;;;;;15.98;6.00;;;;;;;;;;7365909;19;20009;-76
2023/10/12 06:19:29;;;;;;;14.90;6.25;;;;;;;;;;7370342;19;20010;-75
2023/10/12 06:22:19;;;;;;;17.33;6.50;;;;;;;;;;7369709;19;20055;-75
2023/10/12 06:24:49;;;;;;;14.97;6.30;;;;;;;;;;7371670;19;20010;-74
2023/10/12 06:29:51;;;;;;;12.30;5.63;;;;;;;;;;7389465;19;20486;-72
2023/10/12 06:32:18;;;;;;;14.45;5.97;;;;;;;;;;7366342;19;20013;-72
2023/10/12 06:34:44;;;;;;;15.88;5.95;;;;;;;;;;7364851;19;20007;-72
2023/10/12 06:42:39;;;;;;;14.43;6.20;;;;;;;;;;7369567;19;20042;-68
2023/10/12 06:45:07;;;;;;;43.97;21.83;;;;;;;;;;7365992;19;20010;-72
2023/10/12 06:47:41;;;;;;;30.38;17.88;;;;;;;;;;7389326;19;20004;-72
2023/10/12 06:50:14;;;;;;;23.60;12.93;;;;;;;;;;7367723;19;20363;-72
2023/10/12 06:52:40;;;;;;;22.75;6.97;;;;;;;;;;7366740;19;20438;-71
2023/10/12 06:55:08;;;;;;;13.05;6.15;;;;;;;;;;7366372;19;20015;-72
2023/10/12 06:57:42;;;;;;;15.65;6.07;;;;;;;;;;7368617;19;20027;-72
2023/10/12 07:00:17;;;;;;;20.95;6.85;;;;;;;;;;7367594;19;20007;-72
2023/10/12 07:02:43;;;;;;;27.50;7.22;;;;;;;;;;7387808;19;20014;-73
2023/10/12 07:05:09;;;;;;;16.70;7.55;;;;;;;;;;7366777;19;20030;-73
2023/10/12 07:07:39;;;;;;;28.98;7.57;;;;;;;;;;7366761;19;20378;-72
2023/10/12 07:12:49;;;;;;;24.35;6.95;;;;;;;;;;7360222;19;20037;-72
2023/10/12 07:15:21;;;;;;;18.60;7.43;;;;;;;;;;7367354;19;20071;-71
2023/10/12 07:17:51;;;;;;;21.77;7.15;;;;;;;;;;7381398;19;20006;-74
2023/10/12 07:20:40;;;;;;;23.45;7.60;;;;;;;;;;7389186;19;20415;-72
2023/10/12 07:23:15;;;;;;;19.60;6.47;;;;;;;;;;7363740;19;20014;-72
2023/10/12 07:25:53;;;;;;;21.13;6.72;;;;;;;;;;7365380;19;20037;-73
2023/10/12 07:28:32;;;;;;;;;;;;;;;;;;7366953;19;20784;-72
2023/10/12 07:34:23;;;;;;;15.90;7.20;;;;;;;;;;7364125;19;20070;-72
2023/10/12 07:36:53;;;;;;;18.70;6.55;;;;;;;;;;7364490;19;20007;-73
2023/10/12 07:42:05;;;;;;;20.20;6.50;;;;;;;;;;7366222;19;20014;-72
2023/10/12 07:44:38;;;;;;;19.90;6.38;;;;;;;;;;7386314;19;20003;-73
2023/10/12 07:47:13;;;;;;;15.43;6.60;;;;;;;;;;7365518;19;20102;-71
2023/10/12 07:49:39;;;;;;;15.82;6.68;;;;;;;;;;7361550;19;20002;-74
2023/10/12 07:54:47;;;;;;;16.42;7.40;;;;;;;;;;7364208;19;20013;-72
2023/10/12 07:57:16;;;;;;;14.30;7.03;;;;;;;;;;7367420;19;20041;-73
2023/10/12 07:59:54;;;;;;;15.02;6.80;;;;;;;;;;7388949;19;19998;-72
2023/10/12 08:13:05;;;;;;;15.98;6.30;;;;;;;;;;7363622;19;20014;-72
2023/10/12 08:15:49;;;;;;;14.77;6.18;;;;;;;;;;7365086;19;20399;-74
2023/10/12 08:19:08;;;;;;;12.57;5.78;;;;;;;;;;7366728;19;20512;-72
2023/10/12 08:21:01;;;;;;;14.73;6.03;;;;;;;;;;7363780;19;20007;-74
2023/10/12 08:23:26;;;;;;;15.70;7.05;;;;;;;;;;7384563;19;20469;-74
2023/10/12 08:25:57;;;;;;;22.20;7.43;;;;;;;;;;7361621;19;20018;-72
2023/10/12 08:28:23;;;;;;;21.05;7.20;;;;;;;;;;7365144;19;20045;-72
2023/10/12 08:30:56;;;;;;;19.80;7.38;;;;;;;;;;7363268;19;20399;-73
2023/10/12 08:33:48;;;;;;;17.23;7.68;;;;;;;;;;7364075;19;20489;-74
2023/10/12 08:38:52;;;;;;;24.40;8.15;;;;;;;;;;7388780;19;20598;-73
2023/10/12 08:44:04;;;;;;;15.05;7.18;;;;;;;;;;7368807;19;20007;-73
2023/10/12 08:52:05;;;;;;;19.50;8.00;;;;;;;;;;7367031;19;20049;-75
2023/10/12 08:54:37;;;;;;;15.80;8.40;;;;;;;;;;7362715;19;20006;-74
2023/10/12 08:57:35;;;;;;;25.13;8.90;;;;;;;;;;7365808;19;20006;-74
2023/10/12 09:00:24;;;;;;;33.75;8.85;;;;;;;;;;7364163;19;20021;-75
2023/10/12 09:03:00;;;;;;;24.75;9.63;;;;;;;;;;7369564;19;20005;-75
2023/10/12 09:05:31;;;;;;;20.42;8.75;;;;;;;;;;7391727;19;20028;-75
2023/10/12 09:13:33;;;;;;;25.52;10.15;;;;;;;;;;7372837;19;20025;-76
2023/10/12 09:16:00;;;;;;;20.70;10.43;;;;;;;;;;7373268;19;20038;-77
2023/10/12 09:18:43;;;;;;;22.67;10.90;;;;;;;;;;7373594;19;20487;-76
2023/10/12 09:23:58;;;;;;;21.95;10.13;;;;;;;;;;7375467;19;20021;-76
2023/10/12 09:26:34;;;;;;;25.88;9.93;;;;;;;;;;7394425;19;20006;-76
2023/10/12 09:36:43;;;;;;;26.27;10.18;;;;;;;;;;7372865;19;20440;-77
2023/10/12 09:39:12;;;;;;;24.55;11.50;;;;;;;;;;7373564;19;20011;-77
2023/10/12 09:41:40;;;;;;;26.98;11.48;;;;;;;;;;7394673;19;20015;-77
2023/10/12 09:44:07;;;;;;;28.95;11.88;;;;;;;;;;7368417;19;20003;-76
2023/10/12 09:46:35;;;;;;;22.98;10.80;;;;;;;;;;7373836;19;20007;-76
2023/10/12 09:49:07;;;;;;;24.13;10.73;;;;;;;;;;7372979;19;20707;-76
2023/10/12 09:51:37;;;;;;;20.55;11.07;;;;;;;;;;7372159;19;20025;-76
2023/10/12 09:54:15;;;;;;;21.17;10.40;;;;;;;;;;7372717;19;20002;-76
2023/10/12 09:56:52;;;;;;;26.30;11.32;;;;;;;;;;7393690;19;20396;-76
2023/10/12 09:59:19;;;;;;;26.55;10.50;;;;;;;;;;7372164;19;20110;-76
2023/10/12 10:01:49;;;;;;;20.10;10.70;;;;;;;;;;7369737;19;20070;-75
2023/10/12 10:07:11;;;;;;;23.85;10.77;;;;;;;;;;7373106;19;20035;-75
2023/10/12 10:09:53;;;;;;;17.05;9.93;;;;;;;;;;7373071;19;20010;-75
2023/10/12 10:12:20;;;;;;;18.45;10.00;;;;;;;;;;7367355;19;20017;-75
2023/10/12 10:14:52;;;;;;;25.98;10.77;;;;;;;;;;7391767;19;20011;-75
2023/10/12 10:17:27;;;;;;;27.63;11.30;;;;;;;;;;7371741;19;20090;-75
2023/10/12 10:22:56;;;;;;;25.50;11.10;;;;;;;;;;7361662;19;20010;-74
2023/10/12 10:25:27;;;;;;;27.17;11.35;;;;;;;;;;7370175;19;20087;-75
2023/10/12 10:27:56;;;;;;;24.10;11.93;;;;;;;;;;7369850;19;20528;-74
2023/10/12 10:30:36;;;;;;;16.98;10.38;;;;;;;;;;7368439;19;20022;-74
2023/10/12 10:35:57;;;;;;;21.52;9.18;;;;;;;;;;7366477;19;20354;-74
2023/10/12 10:38:34;;;;;;;17.20;9.30;;;;;;;;;;7389701;19;20007;-74
2023/10/12 10:41:07;;;;;;;18.25;9.57;;;;;;;;;;7368732;19;20138;-74
2023/10/12 10:43:39;;;;;;;18.05;9.77;;;;;;;;;;7366908;19;20011;-74
2023/10/12 10:46:06;;;;;;;17.73;8.85;;;;;;;;;;7368873;19;20011;-74
2023/10/12 10:48:34;;;;;;;15.70;8.73;;;;;;;;;;7369365;19;20158;-74
2023/10/12 10:51:10;;;;;;;24.75;9.80;;;;;;;;;;7369771;19;20803;-74
2023/10/12 10:53:37;;;;;;;16.23;9.50;;;;;;;;;;7388035;19;20010;-75
2023/10/12 10:56:15;;;;;;;18.67;9.48;;;;;;;;;;7367993;19;20057;-74
2023/10/12 10:58:41;;;;;;;21.42;9.82;;;;;;;;;;7369982;19;20010;-74
2023/10/12 11:01:15;;;;;;;17.20;9.10;;;;;;;;;;7371417;19;20006;-75
2023/10/12 11:03:40;;;;;;;19.13;9.38;;;;;;;;;;7368243;19;20013;-74
2023/10/12 11:06:10;;;;;;;17.63;9.85;;;;;;;;;;7369747;19;20070;-74
2023/10/12 11:08:35;;;;;;;17.93;9.93;;;;;;;;;;7392655;19;19998;-74
2023/10/12 11:13:38;;;;;;;20.10;12.05;;;;;;;;;;7368256;19;20034;-74
2023/10/12 11:16:20;;;;;;;17.25;9.85;;;;;;;;;;7374508;19;20003;-74
2023/10/12 11:18:51;;;;;;;16.48;9.35;;;;;;;;;;7378552;19;20010;-74
2023/10/12 11:21:17;;;;;;;23.02;10.68;;;;;;;;;;7377108;19;20039;-74
2023/10/12 11:23:44;;;;;;;18.95;10.15;;;;;;;;;;7397921;19;19998;-74
2023/10/12 11:26:17;;;;;;;19.52;10.13;;;;;;;;;;7379054;19;20106;-75
2023/10/12 11:28:46;;;;;;;17.50;9.52;;;;;;;;;;7378740;19;20015;-75
2023/10/12 11:31:30;;;;;;;20.58;11.48;;;;;;;;;;7377913;19;20014;-74
2023/10/12 11:33:59;;;;;;;17.83;10.38;;;;;;;;;;7372633;19;20025;-75
2023/10/12 11:36:25;;;;;;;20.00;11.00;;;;;;;;;;7374122;19;20007;-74
2023/10/12 11:39:10;;;;;;;18.42;10.32;;;;;;;;;;7374369;19;20023;-74
2023/10/12 11:41:36;;;;;;;19.25;10.68;;;;;;;;;;7398834;19;20006;-75
2023/10/12 11:44:05;;;;;;;15.93;10.05;;;;;;;;;;7373453;19;20370;-74
2023/10/12 11:46:43;;;;;;;18.95;9.82;;;;;;;;;;7373642;19;20019;-75
2023/10/12 11:49:10;;;;;;;15.93;9.10;;;;;;;;;;7369762;19;20030;-75
2023/10/12 11:51:40;;;;;;;18.35;9.35;;;;;;;;;;7368763;19;20007;-75
2023/10/12 11:54:08;;;;;;;22.63;10.13;;;;;;;;;;7366243;19;20074;-75
2023/10/12 11:56:43;;;;;;;17.15;9.60;;;;;;;;;;7389450;19;20018;-75
2023/10/12 11:59:13;;;;;;;17.35;9.88;;;;;;;;;;7367583;19;20482;-75
2023/10/12 12:01:40;;;;;;;18.08;10.35;;;;;;;;;;7366386;19;20014;-74
2023/10/12 12:04:16;;;;;;;21.45;10.27;;;;;;;;;;7366169;19;20074;-74
2023/10/12 12:06:42;;;;;;;24.58;10.60;;;;;;;;;;7369142;19;20006;-75
2023/10/12 12:09:08;;;;;;;15.90;9.80;;;;;;;;;;7371889;19;19995;-75
2023/10/12 12:11:37;;;;;;;17.83;10.52;;;;;;;;;;7394981;19;20428;-75
2023/10/12 12:14:06;;;;;;;16.95;9.77;;;;;;;;;;7371635;19;20012;-75
2023/10/12 12:16:34;;;;;;;19.40;9.93;;;;;;;;;;7372435;19;20082;-75
2023/10/12 12:18:59;;;;;;;20.58;14.05;;;;;;;;;;7373180;19;20010;-75
2023/10/12 12:21:34;;;;;;;15.55;9.48;;;;;;;;;;7369466;19;20099;-75
2023/10/12 12:24:21;;;;;;;16.00;9.00;;;;;;;;;;7367883;19;20006;-75
2023/10/12 12:26:49;;;;;;;16.27;8.70;;;;;;;;;;7390625;19;20011;-75
2023/10/12 12:29:16;;;;;;;17.65;8.35;;;;;;;;;;7365865;19;20021;-75
2023/10/12 12:31:41;;;;;;;15.23;7.82;;;;;;;;;;7367569;19;20006;-75
2023/10/12 12:34:06;;;;;;;14.68;7.85;;;;;;;;;;7366980;19;20003;-75
2023/10/12 12:36:33;;;;;;;13.45;7.88;;;;;;;;;;7371006;19;20014;-74
2023/10/12 12:39:09;;;;;;;13.88;7.50;;;;;;;;;;7374292;19;20003;-75
2023/10/12 12:41:35;;;;;;;13.02;7.25;;;;;;;;;;7396934;19;19998;-74
2023/10/12 12:44:00;;;;;;;13.98;6.95;;;;;;;;;;7372438;19;20015;-75
2023/10/12 12:46:26;;;;;;;14.27;7.53;;;;;;;;;;7374581;19;20052;-75
2023/10/12 12:48:52;;;;;;;11.82;7.45;;;;;;;;;;7373851;19;20002;-75
2023/10/12 12:51:19;;;;;;;17.50;8.30;;;;;;;;;;7376312;19;20010;-75
2023/10/12 12:53:46;;;;;;;15.77;8.75;;;;;;;;;;7392552;19;20017;-75
2023/10/12 12:56:15;;;;;;;15.52;8.50;;;;;;;;;;7372078;19;20899;-75
2023/10/12 12:58:46;;;;;;;19.10;8.60;;;;;;;;;;7374970;19;20035;-77
2023/10/12 13:01:16;;;;;;;18.17;8.13;;;;;;;;;;7375659;19;20645;-76
2023/10/12 13:03:42;;;;;;;14.20;8.05;;;;;;;;;;7373781;19;20058;-76
2023/10/12 13:06:07;;;;;;;18.23;8.98;;;;;;;;;;7377498;19;20479;-75
2023/10/12 13:08:36;;;;;;;15.63;8.27;;;;;;;;;;7399154;19;20010;-77
2023/10/12 13:11:04;;;;;;;26.05;15.25;;;;;;;;;;7378377;19;20027;-75
2023/10/12 13:13:33;;;;;;;17.33;9.15;;;;;;;;;;7379411;19;20006;-75
2023/10/12 13:16:05;;;;;;;18.00;8.60;;;;;;;;;;7379219;19;20011;-75
2023/10/12 13:18:33;;;;;;;14.13;8.57;;;;;;;;;;7382130;19;20555;-74
2023/10/12 13:21:00;;;;;;;17.00;9.07;;;;;;;;;;7380147;19;20021;-75
2023/10/12 13:23:26;;;;;;;16.80;9.05;;;;;;;;;;7396904;19;20011;-76
2023/10/12 13:25:52;;;;;;;15.95;8.40;;;;;;;;;;7376145;19;19998;-76
2023/10/12 13:28:17;;;;;;;16.65;9.38;;;;;;;;;;7377772;19;20015;-76
2023/10/12 13:30:44;;;;;;;16.30;9.40;;;;;;;;;;7393966;19;20083;-76
2023/10/12 13:33:11;;;;;;;20.75;9.20;;;;;;;;;;7392303;19;20025;-76
2023/10/12 13:38:07;;;;;;;19.15;8.95;;;;;;;;;;7395846;19;20046;-76
2023/10/12 13:40:36;;;;;;;18.73;8.73;;;;;;;;;;7397461;19;20479;-76
2023/10/12 13:43:07;;;;;;;15.55;9.20;;;;;;;;;;7395308;19;20018;-76
2023/10/12 13:45:33;;;;;;;16.00;8.65;;;;;;;;;;7395051;19;20054;-74
2023/10/12 13:47:58;;;;;;;18.15;8.90;;;;;;;;;;7390909;19;19999;-74
2023/10/12 13:50:23;;;;;;;16.63;9.73;;;;;;;;;;7413813;19;20047;-75
2023/10/12 13:52:49;;;;;;;16.77;9.88;;;;;;;;;;7390514;19;20082;-75
2023/10/12 13:55:15;;;;;;;16.80;9.43;;;;;;;;;;7392484;19;20027;-76
2023/10/12 13:57:50;;;;;;;17.50;9.45;;;;;;;;;;7392077;19;20014;-76
2023/10/12 14:00:22;;;;;;;17.60;9.38;;;;;;;;;;7391145;19;20302;-76
2023/10/12 14:02:48;;;;;;;16.95;9.52;;;;;;;;;;7399484;19;20010;-76
2023/10/12 14:05:24;;;;;;;17.95;9.38;;;;;;;;;;7408573;19;20023;-76
2023/10/12 14:07:54;;;;;;;17.13;9.68;;;;;;;;;;7390922;19;20052;-75
2023/10/12 14:10:23;;;;;;;17.00;9.85;;;;;;;;;;7387265;19;20005;-75
2023/10/12 14:12:53;;;;;;;16.85;9.85;;;;;;;;;;7383857;19;20038;-75
2023/10/12 14:15:22;;;;;;;19.97;9.40;;;;;;;;;;7386369;19;20006;-75
2023/10/12 14:17:48;;;;;;;18.63;10.15;;;;;;;;;;7399774;19;20026;-75
2023/10/12 14:20:13;;;;;;;20.23;10.15;;;;;;;;;;7400802;19;20511;-75
2023/10/12 14:22:42;;;;;;;19.15;10.30;;;;;;;;;;7384562;19;20006;-75
2023/10/12 14:25:08;;;;;;;41.08;27.90;;;;;;;;;;7385267;19;20432;-75
2023/10/12 14:27:33;;;;;;;20.45;11.90;;;;;;;;;;7379922;19;20017;-75
2023/10/12 14:30:13;;;;;;;15.93;9.48;;;;;;;;;;7383735;19;20009;-74
2023/10/12 14:32:42;;;;;;;18.27;10.57;;;;;;;;;;7402044;19;20022;-75
2023/10/12 14:35:12;;;;;;;20.48;10.68;;;;;;;;;;7380885;19;20014;-75
2023/10/12 14:37:37;;;;;;;16.40;9.68;;;;;;;;;;7383106;19;20003;-75
2023/10/12 14:40:05;;;;;;;21.05;10.50;;;;;;;;;;7380983;19;20251;-74
2023/10/12 14:42:31;;;;;;;19.00;10.80;;;;;;;;;;7380079;19;20007;-72
2023/10/12 14:44:56;;;;;;;18.50;10.57;;;;;;;;;;7375963;19;20337;-72
2023/10/12 14:47:22;;;;;;;18.05;11.52;;;;;;;;;;7389879;19;20519;-72
2023/10/12 14:49:48;;;;;;;17.58;10.57;;;;;;;;;;7378344;19;20007;-73
2023/10/12 14:52:17;;;;;;;19.67;10.52;;;;;;;;;;7375299;19;20083;-73
2023/10/12 14:54:42;;;;;;;22.85;14.48;;;;;;;;;;7370706;19;20093;-73
2023/10/12 14:57:10;;;;;;;56.42;44.55;;;;;;;;;;7376930;19;20004;-72
2023/10/12 14:59:35;;;;;;;18.80;13.02;;;;;;;;;;7396188;19;20025;-72
2023/10/12 15:02:09;;;;;;;23.13;12.18;;;;;;;;;;7372947;19;20081;-72
2023/10/12 15:04:41;;;;;;;18.30;11.48;;;;;;;;;;7387609;19;20445;-71
2023/10/12 15:07:09;;;;;;;20.33;11.95;;;;;;;;;;7391019;19;20007;-72
2023/10/12 15:09:35;;;;;;;21.52;12.15;;;;;;;;;;7392420;19;19998;-73
2023/10/12 15:12:05;;;;;;;21.30;12.73;;;;;;;;;;7390558;19;20010;-73
2023/10/12 15:14:31;;;;;;;21.75;12.30;;;;;;;;;;7392398;19;20048;-72
2023/10/12 15:16:57;;;;;;;20.83;11.82;;;;;;;;;;7392451;19;20027;-73
2023/10/12 15:19:22;;;;;;;24.63;13.07;;;;;;;;;;7394336;19;20713;-72
2023/10/12 15:21:49;;;;;;;20.15;12.15;;;;;;;;;;7382845;19;20469;-73
2023/10/12 15:24:14;;;;;;;22.70;12.82;;;;;;;;;;7371063;19;20419;-74
2023/10/12 15:26:40;;;;;;;24.80;12.68;;;;;;;;;;7385926;19;20087;-72
2023/10/12 15:29:08;;;;;;;22.15;11.73;;;;;;;;;;7387890;19;20015;-75
2023/10/12 15:31:33;;;;;;;23.17;12.15;;;;;;;;;;7388611;19;19998;-74
2023/10/12 15:33:59;;;;;;;18.58;11.57;;;;;;;;;;7389225;19;20023;-74
2023/10/12 15:36:25;;;;;;;18.63;11.13;;;;;;;;;;7390647;19;20015;-74
2023/10/12 15:38:53;;;;;;;19.40;10.95;;;;;;;;;;7390110;19;20006;-74
2023/10/12 15:41:19;;;;;;;25.33;12.50;;;;;;;;;;7390782;19;20339;-75
2023/10/12 15:43:46;;;;;;;18.30;10.88;;;;;;;;;;7390172;19;19995;-75
2023/10/12 15:46:11;;;;;;;19.25;10.98;;;;;;;;;;7379294;19;20421;-74
2023/10/12 15:48:37;;;;;;;19.45;10.65;;;;;;;;;;7385167;19;20010;-74
2023/10/12 15:51:03;;;;;;;20.95;11.07;;;;;;;;;;7382949;19;20025;-75
2023/10/12 15:53:28;;;;;;;21.48;11.02;;;;;;;;;;7379892;19;20006;-75
2023/10/12 15:55:53;;;;;;;22.25;12.07;;;;;;;;;;7387649;19;19994;-74
2023/10/12 15:58:20;;;;;;;19.98;13.15;;;;;;;;;;7387626;19;19999;-74
2023/10/12 16:00:45;;;;;;;26.70;20.33;;;;;;;;;;7387505;19;19999;-74
2023/10/12 16:03:10;;;;;;;39.60;28.45;;;;;;;;;;7383651;19;20006;-74
2023/10/12 16:05:37;;;;;;;23.02;15.52;;;;;;;;;;7384802;19;20007;-74
2023/10/12 16:08:10;;;;;;;23.65;12.90;;;;;;;;;;7385449;19;20002;-75
2023/10/12 16:10:36;;;;;;;21.48;12.95;;;;;;;;;;7384180;19;20090;-75
2023/10/12 16:13:02;;;;;;;29.80;21.52;;;;;;;;;;7383403;19;20536;-74
2023/10/12 16:15:28;;;;;;;24.38;12.75;;;;;;;;;;7383063;19;20015;-74
2023/10/12 16:17:54;;;;;;;28.27;15.48;;;;;;;;;;7387376;19;20134;-77
2023/10/12 16:20:20;;;;;;;24.40;13.05;;;;;;;;;;7387081;19;20039;-75
2023/10/12 16:22:47;;;;;;;22.63;12.82;;;;;;;;;;7380336;19;20031;-75
2023/10/12 16:25:17;;;;;;;22.08;12.52;;;;;;;;;;7388221;19;19995;-75
2023/10/12 16:27:45;;;;;;;26.00;13.90;;;;;;;;;;7404083;19;20012;-74
2023/10/12 16:30:14;;;;;;;22.52;12.88;;;;;;;;;;7399313;19;20003;-75
2023/10/12 16:32:46;;;;;;;24.65;13.60;;;;;;;;;;7398321;19;20002;-75
2023/10/12 16:35:18;;;;;;;21.20;16.10;;;;;;;;;;7371734;19;20014;-75
2023/10/12 16:37:46;;;;;;;23.52;15.00;;;;;;;;;;7379935;19;20075;-75
2023/10/12 16:40:15;;;;;;;23.20;14.60;;;;;;;;;;7361557;19;20104;-75
2023/10/12 16:42:44;;;;;;;26.02;15.80;;;;;;;;;;7382387;19;20525;-75
2023/10/12 16:45:10;;;;;;;24.10;15.63;;;;;;;;;;7359872;19;20021;-75
2023/10/12 16:47:36;;;;;;;27.83;15.45;;;;;;;;;;7362425;19;20014;-75
2023/10/12 16:50:01;;;;;;;26.80;16.50;;;;;;;;;;7388014;19;19998;-75
2023/10/12 16:52:27;;;;;;;27.00;16.02;;;;;;;;;;7369656;19;20535;-75
2023/10/12 16:54:52;;;;;;;24.35;16.60;;;;;;;;;;7357198;19;20768;-75
2023/10/12 16:57:18;;;;;;;25.13;16.02;;;;;;;;;;7363174;19;20062;-75
2023/10/12 16:59:43;;;;;;;25.33;15.75;;;;;;;;;;7342073;19;20002;-75
2023/10/12 17:02:10;;;;;;;27.40;16.02;;;;;;;;;;7361605;19;20002;-75
2023/10/12 17:04:39;;;;;;;27.48;16.30;;;;;;;;;;7378354;19;20023;-75